Time;durP1;ratioP1;P1;durP2;ratioP2;P2;SDS_P1;SDS_P2;PMS_P1;PMS_P2;Temp;Humidity;BMP_temperature;BMP_pressure;BME280_temperature;BME280_humidity;BME280_pressure;Samples;Min_cycle;Max_cycle;Signal;HPM_P1;HPM_P2
2023/03/09 00:00:08;;;;;;;2.53;2.43;;;;;;;9.03;100.00;97594.38;5108997;28;20474;-50
2023/03/09 00:02:35;;;;;;;2.30;2.20;;;;;;;8.97;100.00;97603.59;5109641;28;20479;-50
2023/03/09 00:05:01;;;;;;;3.57;3.27;;;;;;;8.90;100.00;97599.63;5101990;28;20456;-50
2023/03/09 00:07:30;;;;;;;3.10;2.47;;;;;;;9.14;100.00;97613.06;5108844;28;20451;-50
2023/03/09 00:09:57;;;;;;;3.73;3.60;;;;;;;9.06;100.00;97615.41;5109304;28;20468;-50
2023/03/09 00:12:23;;;;;;;6.40;4.57;;;;;;;8.95;100.00;97621.38;5103454;28;20816;-50
2023/03/09 00:14:53;;;;;;;3.83;3.20;;;;;;;8.84;100.00;97629.19;5095823;28;21026;-50
2023/03/09 00:17:20;;;;;;;6.30;5.70;;;;;;;8.63;100.00;97620.78;5107310;28;20552;-50
2023/03/09 00:19:46;;;;;;;11.70;5.60;;;;;;;8.46;100.00;97616.56;5108795;28;21040;-50
2023/03/09 00:22:13;;;;;;;13.20;4.27;;;;;;;8.31;100.00;97618.34;5103972;28;20563;-50
2023/03/09 00:24:45;;;;;;;5.27;4.87;;;;;;;8.22;100.00;97624.25;5102072;28;20471;-50
2023/03/09 00:27:13;;;;;;;4.47;2.90;;;;;;;8.57;100.00;97624.69;5106757;28;20469;-50
2023/03/09 00:29:40;;;;;;;1.37;1.27;;;;;;;8.84;100.00;97627.38;5108810;28;20448;-50
2023/03/09 00:32:06;;;;;;;3.10;2.90;;;;;;;8.86;100.00;97627.28;5104980;28;20471;-50
2023/03/09 00:34:33;;;;;;;3.47;3.17;;;;;;;8.87;100.00;97623.69;5101880;28;20505;-50
2023/03/09 00:36:59;;;;;;;2.83;2.63;;;;;;;8.80;100.00;97622.38;5105754;28;20985;-51
2023/03/09 00:39:26;;;;;;;4.20;2.27;;;;;;;8.77;100.00;97620.78;5108611;28;20456;-51
2023/03/09 00:41:52;;;;;;;3.20;2.93;;;;;;;8.73;100.00;97621.91;5104933;28;20491;-50
2023/03/09 00:44:19;;;;;;;3.40;2.93;;;;;;;8.84;100.00;97621.22;5101368;28;20861;-50
2023/03/09 00:46:45;;;;;;;2.20;2.10;;;;;;;8.76;100.00;97611.13;5105287;28;20452;-50
2023/03/09 00:49:14;;;;;;;2.17;2.07;;;;;;;8.80;100.00;97612.63;5108950;28;20449;-50
2023/03/09 00:51:42;;;;;;;2.03;1.93;;;;;;;9.19;100.00;97619.78;5105112;28;20471;-50
2023/03/09 00:54:11;;;;;;;0.30;0.30;;;;;;;9.37;100.00;97625.66;5097252;28;20449;-50
2023/03/09 00:56:37;;;;;;;0.80;0.50;;;;;;;9.50;100.00;97628.34;5106400;28;20453;-50
2023/03/09 00:59:04;;;;;;;0.50;0.37;;;;;;;9.66;100.00;97634.31;5101077;28;20925;-50
2023/03/09 01:01:31;;;;;;;0.80;0.70;;;;;;;9.64;100.00;97630.91;5098458;28;20469;-50
2023/03/09 01:03:57;;;;;;;0.47;0.23;;;;;;;9.82;100.00;97634.13;5093104;28;20506;-50
2023/03/09 01:06:24;;;;;;;0.30;0.30;;;;;;;9.85;100.00;97638.34;5106788;28;20781;-50
2023/03/09 01:08:52;;;;;;;0.40;0.20;;;;;;;9.75;100.00;97643.47;5101012;28;20449;-50
2023/03/09 01:11:19;;;;;;;2.30;0.60;;;;;;;9.88;100.00;97643.47;5102515;28;20476;-50
2023/03/09 01:13:45;;;;;;;1.23;0.43;;;;;;;9.74;100.00;97655.88;5101360;28;20448;-50
2023/03/09 01:16:12;;;;;;;0.40;0.30;;;;;;;9.86;100.00;97663.94;5107084;28;20493;-50
2023/03/09 01:18:39;;;;;;;0.30;0.30;;;;;;;9.90;100.00;97665.44;5101256;28;20479;-50
2023/03/09 01:21:06;;;;;;;0.67;0.67;;;;;;;9.85;100.00;97664.88;5102363;28;20502;-50
2023/03/09 01:23:33;;;;;;;0.40;0.30;;;;;;;9.74;100.00;97669.13;5107818;28;20489;-50
2023/03/09 01:25:59;;;;;;;0.40;0.30;;;;;;;9.87;100.00;97686.84;5106721;28;20455;-50
2023/03/09 01:28:26;;;;;;;0.30;0.20;;;;;;;9.81;100.00;97682.81;5100836;28;20513;-50
2023/03/09 01:30:52;;;;;;;0.30;0.20;;;;;;;9.92;100.00;97698.03;5102215;28;20473;-50
2023/03/09 01:33:19;;;;;;;0.40;0.30;;;;;;;9.74;100.00;97690.38;5107616;28;20452;-50
2023/03/09 01:35:46;;;;;;;0.83;0.83;;;;;;;9.72;100.00;97689.59;5106836;28;20444;-50
2023/03/09 01:38:13;;;;;;;3.60;0.80;;;;;;;9.76;100.00;97688.44;5100565;27;20444;-50
2023/03/09 01:40:43;;;;;;;0.87;0.60;;;;;;;9.75;100.00;97691.22;5102044;28;20794;-50
2023/03/09 01:43:39;;;;;;;0.30;0.30;;;;;;;9.78;100.00;97691.00;5107639;28;20489;-50
2023/03/09 01:46:24;;;;;;;0.40;0.30;;;;;;;9.76;100.00;97688.44;5107429;28;20448;-50
2023/03/09 01:49:09;;;;;;;0.30;0.30;;;;;;;9.92;100.00;97698.03;5107130;28;20497;-50
2023/03/09 01:52:08;;;;;;;0.67;0.67;;;;;;;10.06;100.00;97689.97;5090796;28;20480;-49
2023/03/09 01:54:45;;;;;;;0.47;0.40;;;;;;;9.96;100.00;97688.91;5073331;28;20445;-50
2023/03/09 01:57:25;;;;;;;0.30;0.20;;;;;;;9.90;100.00;97694.63;5107135;28;20512;-50
2023/03/09 01:59:54;;;;;;;0.30;0.20;;;;;;;9.92;100.00;97701.53;5105163;28;20475;-50
2023/03/09 02:02:24;;;;;;;0.30;0.30;;;;;;;9.87;100.00;97705.44;5088458;28;20507;-50
2023/03/09 02:04:55;;;;;;;0.30;0.20;;;;;;;9.85;100.00;97717.94;5105154;28;20527;-50
2023/03/09 02:07:24;;;;;;;10.30;0.40;;;;;;;9.97;100.00;97731.25;5099927;28;20971;-50
2023/03/09 02:10:07;;;;;;;0.30;0.20;;;;;;;9.78;100.00;97749.34;5100441;28;21070;-50
2023/03/09 02:12:34;;;;;;;0.30;0.20;;;;;;;9.74;100.00;97751.38;5090218;28;20436;-50
2023/03/09 02:15:03;;;;;;;0.40;0.20;;;;;;;9.79;100.00;97746.59;5092211;28;20449;-50
2023/03/09 02:17:29;;;;;;;0.70;0.60;;;;;;;9.64;100.00;97723.75;5104498;28;20453;-50
2023/03/09 02:20:28;;;;;;;0.40;0.30;;;;;;;9.72;100.00;97760.34;5106847;28;20464;-50
2023/03/09 02:22:55;;;;;;;0.30;0.20;;;;;;;9.68;100.00;97742.94;5106750;28;20488;-50
2023/03/09 02:25:24;;;;;;;0.33;0.20;;;;;;;9.68;100.00;97727.03;5100237;28;20448;-50
2023/03/09 02:27:52;;;;;;;0.30;0.20;;;;;;;9.62;100.00;97751.31;5099664;28;20453;-50
2023/03/09 02:30:19;;;;;;;0.30;0.20;;;;;;;9.61;100.00;97746.97;5105759;28;20469;-50
2023/03/09 02:32:45;;;;;;;0.30;0.20;;;;;;;9.73;100.00;97740.84;5106356;28;20821;-50
2023/03/09 02:35:12;;;;;;;0.30;0.20;;;;;;;9.76;100.00;97736.19;5100875;28;20468;-50
2023/03/09 02:37:40;;;;;;;0.30;0.10;;;;;;;9.83;100.00;97746.38;5099467;28;20536;-50
2023/03/09 02:40:21;;;;;;;0.30;0.20;;;;;;;9.84;100.00;97748.09;5105112;28;20560;-49
2023/03/09 02:42:50;;;;;;;0.30;0.20;;;;;;;9.93;100.00;97747.47;5106194;28;20996;-49
2023/03/09 02:45:19;;;;;;;0.30;0.20;;;;;;;9.85;100.00;97769.22;5103045;28;20451;-50
2023/03/09 02:47:46;;;;;;;0.30;0.20;;;;;;;9.94;100.00;97773.06;5099731;28;20459;-50
2023/03/09 02:50:13;;;;;;;0.30;0.20;;;;;;;9.85;100.00;97776.31;5101725;28;21023;-50
2023/03/09 02:52:39;;;;;;;0.30;0.20;;;;;;;9.96;100.00;97774.66;5106172;28;20475;-50
2023/03/09 02:55:07;;;;;;;0.30;0.20;;;;;;;9.91;100.00;97784.75;5092777;28;20446;-50
2023/03/09 02:57:34;;;;;;;0.30;0.20;;;;;;;9.99;100.00;97793.03;5106059;28;20445;-50
2023/03/09 03:00:00;;;;;;;0.30;0.20;;;;;;;9.79;100.00;97804.97;5105192;28;20517;-50
2023/03/09 03:02:26;;;;;;;0.30;0.20;;;;;;;9.80;100.00;97816.44;5086604;28;20511;-50
2023/03/09 03:04:53;;;;;;;0.80;0.20;;;;;;;9.75;100.00;97821.19;5105794;28;20532;-50
2023/03/09 03:07:19;;;;;;;0.40;0.30;;;;;;;9.71;100.00;97827.63;5099181;28;20455;-50
2023/03/09 03:09:46;;;;;;;0.30;0.10;;;;;;;9.82;100.00;97827.78;5099352;28;20982;-50
2023/03/09 03:12:12;;;;;;;0.30;0.20;;;;;;;9.77;100.00;97833.41;5105810;28;20449;-50
2023/03/09 03:14:39;;;;;;;0.33;0.20;;;;;;;9.74;100.00;97856.63;5105832;28;20444;-50
2023/03/09 03:17:05;;;;;;;0.40;0.20;;;;;;;9.70;100.00;97852.44;5098722;28;20560;-50
2023/03/09 03:19:32;;;;;;;0.30;0.20;;;;;;;9.71;100.00;97854.16;5099181;28;20976;-50
2023/03/09 03:21:58;;;;;;;0.30;0.20;;;;;;;9.73;100.00;97852.25;5105929;28;20491;-50
2023/03/09 03:24:25;;;;;;;0.30;0.20;;;;;;;9.72;100.00;97858.50;5105610;28;20519;-50
2023/03/09 03:26:51;;;;;;;0.37;0.23;;;;;;;9.91;100.00;97866.16;5098574;28;20505;-50
2023/03/09 03:29:18;;;;;;;0.30;0.20;;;;;;;9.98;100.00;97864.78;5099169;28;20964;-50
2023/03/09 03:31:44;;;;;;;0.30;0.10;;;;;;;10.01;100.00;97864.59;5085287;28;20993;-50
2023/03/09 03:34:10;;;;;;;0.33;0.20;;;;;;;9.88;100.00;97869.00;5099118;28;20494;-50
2023/03/09 03:36:37;;;;;;;0.30;0.20;;;;;;;9.94;100.00;97873.91;5105664;28;20444;-50
2023/03/09 03:39:05;;;;;;;0.30;0.20;;;;;;;9.90;100.00;97883.03;5105785;28;20808;-50
2023/03/09 03:41:32;;;;;;;0.30;0.20;;;;;;;9.88;100.00;97882.28;5086008;28;20479;-50
2023/03/09 03:43:58;;;;;;;0.30;0.20;;;;;;;9.88;100.00;97898.19;5098958;28;20489;-50
2023/03/09 03:46:25;;;;;;;0.50;0.40;;;;;;;9.87;100.00;97904.41;5104923;28;20552;-50
2023/03/09 03:48:51;;;;;;;0.63;0.27;;;;;;;9.82;100.00;97910.03;5105528;28;20448;-50
2023/03/09 03:51:18;;;;;;;0.30;0.20;;;;;;;9.88;100.00;97914.13;5099887;28;20487;-50
2023/03/09 03:53:44;;;;;;;0.30;0.20;;;;;;;9.96;100.00;97925.06;5097677;28;20532;-50
2023/03/09 03:56:11;;;;;;;0.30;0.20;;;;;;;9.96;100.00;97925.91;5099870;28;20451;-50
2023/03/09 03:58:37;;;;;;;0.30;0.20;;;;;;;9.97;100.00;97926.78;5098528;28;20452;-50
2023/03/09 04:01:04;;;;;;;0.30;0.20;;;;;;;10.03;100.00;97927.25;5102005;28;20480;-50
2023/03/09 04:03:31;;;;;;;0.30;0.20;;;;;;;10.07;100.00;97925.25;5100020;28;20566;-50
2023/03/09 04:05:57;;;;;;;0.43;0.37;;;;;;;10.17;100.00;97934.31;5100221;28;20512;-50
2023/03/09 04:08:24;;;;;;;0.30;0.20;;;;;;;10.16;100.00;97939.72;5098275;28;20510;-50
2023/03/09 04:10:50;;;;;;;1.60;1.50;;;;;;;10.24;100.00;97946.25;5103767;28;20464;-50
2023/03/09 04:13:17;;;;;;;0.30;0.20;;;;;;;10.22;100.00;97944.66;5098571;28;20445;-50
2023/03/09 04:15:43;;;;;;;0.30;0.20;;;;;;;10.17;100.00;97952.91;5100062;28;20830;-49
2023/03/09 04:18:10;;;;;;;0.60;0.27;;;;;;;10.22;100.00;97955.28;5097311;28;20449;-50
2023/03/09 04:20:38;;;;;;;0.30;0.20;;;;;;;10.26;100.00;97957.63;5103906;28;20518;-50
2023/03/09 04:23:05;;;;;;;0.30;0.20;;;;;;;10.22;100.00;97956.13;5105043;28;20487;-50
2023/03/09 04:25:32;;;;;;;3.60;0.67;;;;;;;10.16;100.00;97968.94;5100391;28;21013;-50
2023/03/09 04:27:58;;;;;;;0.50;0.23;;;;;;;10.16;100.00;97975.09;5098631;28;20444;-50
2023/03/09 04:30:25;;;;;;;0.33;0.23;;;;;;;10.18;100.00;97977.63;5106951;28;20465;-50
2023/03/09 04:32:51;;;;;;;0.43;0.43;;;;;;;10.20;100.00;97965.97;5108827;28;20444;-50
2023/03/09 04:35:18;;;;;;;0.40;0.37;;;;;;;10.17;100.00;97967.97;5104217;28;20454;-50
2023/03/09 04:37:45;;;;;;;2.00;0.43;;;;;;;10.11;100.00;97982.47;5102114;28;20453;-50
2023/03/09 04:40:12;;;;;;;0.80;0.30;;;;;;;10.20;100.00;97996.97;5106706;28;20578;-49
2023/03/09 04:42:39;;;;;;;0.67;0.40;;;;;;;10.16;100.00;98004.28;5109142;28;20541;-50
2023/03/09 04:45:06;;;;;;;0.50;0.47;;;;;;;10.15;100.00;98012.34;5104691;28;20448;-50
2023/03/09 04:47:32;;;;;;;0.50;0.30;;;;;;;10.08;100.00;98015.38;5112676;28;20450;-50
2023/03/09 04:49:59;;;;;;;1.17;0.80;;;;;;;10.12;100.00;98023.13;5103488;28;20560;-50
2023/03/09 04:52:25;;;;;;;0.47;0.47;;;;;;;10.10;100.00;98033.84;5113005;28;20448;-50
2023/03/09 04:54:54;;;;;;;1.00;0.27;;;;;;;10.07;100.00;98028.75;5095072;28;20451;-50
2023/03/09 04:57:21;;;;;;;13.43;0.80;;;;;;;10.21;100.00;98035.84;5108684;28;20458;-50
2023/03/09 04:59:47;;;;;;;0.57;0.50;;;;;;;10.20;100.00;98048.25;5105459;28;20468;-50
2023/03/09 05:02:14;;;;;;;2.73;1.03;;;;;;;10.20;100.00;98050.91;5090643;28;20453;-50
2023/03/09 05:04:40;;;;;;;0.80;0.80;;;;;;;10.14;100.00;98059.25;5105401;28;20483;-50
2023/03/09 05:07:07;;;;;;;0.40;0.40;;;;;;;10.15;100.00;98060.13;5101053;28;20444;-50
2023/03/09 05:09:33;;;;;;;9.73;0.57;;;;;;;10.16;100.00;98060.03;5103887;28;20447;-50
2023/03/09 05:12:00;;;;;;;0.97;0.60;;;;;;;10.15;100.00;98060.13;5079766;28;20506;-49
2023/03/09 05:14:28;;;;;;;0.30;0.20;;;;;;;10.17;100.00;98063.53;5105908;28;20520;-50
2023/03/09 05:16:55;;;;;;;0.50;0.40;;;;;;;10.19;100.00;98075.75;5101078;28;20539;-50
2023/03/09 05:19:22;;;;;;;0.40;0.20;;;;;;;10.33;100.00;98082.91;5102958;27;20456;-50
2023/03/09 05:21:48;;;;;;;6.23;0.57;;;;;;;10.38;100.00;98088.75;5107747;28;20448;-50
2023/03/09 05:24:15;;;;;;;0.67;0.50;;;;;;;10.36;100.00;98095.97;5106597;28;20495;-49
2023/03/09 05:26:41;;;;;;;1.87;0.87;;;;;;;10.21;100.00;98107.53;5082184;28;20466;-50
2023/03/09 05:29:07;;;;;;;5.87;0.77;;;;;;;10.23;100.00;98103.84;5106459;28;20444;-50
2023/03/09 05:31:34;;;;;;;7.73;0.50;;;;;;;10.19;100.00;98110.28;5108675;28;20465;-49
2023/03/09 05:34:01;;;;;;;2.43;0.70;;;;;;;10.23;100.00;98117.13;5106558;28;20451;-50
2023/03/09 05:36:27;;;;;;;0.30;0.20;;;;;;;10.22;100.00;98117.22;5100744;28;20484;-50
2023/03/09 05:38:54;;;;;;;1.07;0.73;;;;;;;10.21;100.00;98134.06;5101781;28;20490;-50
2023/03/09 05:41:20;;;;;;;1.80;1.60;;;;;;;10.15;100.00;98137.97;5106208;28;20467;-50
2023/03/09 05:43:47;;;;;;;0.30;0.20;;;;;;;10.28;100.00;98138.06;5089082;28;20490;-50
2023/03/09 05:46:15;;;;;;;0.50;0.50;;;;;;;10.33;100.00;98130.69;5107322;28;20536;-50
2023/03/09 05:48:43;;;;;;;0.30;0.20;;;;;;;10.36;100.00;98131.34;5106918;28;20448;-50
2023/03/09 05:51:10;;;;;;;1.97;0.83;;;;;;;10.32;100.00;98145.78;5107174;28;20477;-50
2023/03/09 05:53:37;;;;;;;6.43;0.63;;;;;;;10.29;100.00;98150.44;5107449;28;20945;-50
2023/03/09 05:56:05;;;;;;;0.30;0.20;;;;;;;10.26;100.00;98145.28;5086631;28;20444;-50
2023/03/09 05:58:32;;;;;;;0.70;0.67;;;;;;;10.24;100.00;98150.69;5100325;28;20528;-50
2023/03/09 06:00:58;;;;;;;0.53;0.40;;;;;;;10.26;100.00;98158.56;5106496;28;20469;-50
2023/03/09 06:03:25;;;;;;;1.63;1.30;;;;;;;10.23;100.00;98159.59;5100204;28;21020;-50
2023/03/09 06:05:59;;;;;;;1.50;0.83;;;;;;;10.50;100.00;98162.34;5100698;28;20483;-50
2023/03/09 06:08:26;;;;;;;0.70;0.50;;;;;;;10.20;100.00;98159.78;5099902;28;20445;-50
2023/03/09 06:10:53;;;;;;;1.37;0.60;;;;;;;10.30;100.00;98168.06;5105477;28;20510;-50
2023/03/09 06:13:20;;;;;;;5.13;1.40;;;;;;;10.22;100.00;98175.63;5099497;28;20630;-50
2023/03/09 06:15:46;;;;;;;4.43;0.70;;;;;;;10.18;100.00;98174.09;5101607;28;20455;-50
2023/03/09 06:18:13;;;;;;;0.80;0.67;;;;;;;10.32;100.00;98166.16;5099788;28;20472;-50
2023/03/09 06:20:39;;;;;;;0.50;0.47;;;;;;;10.38;100.00;98179.06;5104757;28;20989;-50
2023/03/09 06:23:06;;;;;;;1.90;0.57;;;;;;;10.34;100.00;98183.69;5106504;28;20447;-50
2023/03/09 06:25:32;;;;;;;0.60;0.47;;;;;;;10.20;100.00;98190.78;5102556;28;20493;-50
2023/03/09 06:27:58;;;;;;;5.20;0.50;;;;;;;10.30;100.00;98198.13;5099602;28;20453;-50
2023/03/09 06:30:26;;;;;;;7.13;0.73;;;;;;;10.28;100.00;98189.41;5103040;28;20526;-50
2023/03/09 06:32:53;;;;;;;3.10;1.53;;;;;;;10.12;100.00;98193.03;5106885;28;20452;-50
2023/03/09 06:35:19;;;;;;;1.77;0.43;;;;;;;10.18;100.00;98197.97;5102412;28;20452;-50
2023/03/09 06:37:46;;;;;;;0.63;0.60;;;;;;;10.07;100.00;98204.78;5096754;28;20456;-50
2023/03/09 06:40:13;;;;;;;1.57;1.03;;;;;;;10.15;100.00;98212.31;5102266;28;20468;-50
2023/03/09 06:42:40;;;;;;;1.00;0.70;;;;;;;10.23;100.00;98210.06;5099156;28;20502;-49
2023/03/09 06:45:08;;;;;;;1.03;0.30;;;;;;;10.20;100.00;98219.97;5082129;28;20489;-50
2023/03/09 06:47:34;;;;;;;3.73;0.80;;;;;;;10.44;100.00;98223.84;5106476;28;20884;-50
2023/03/09 06:50:01;;;;;;;3.43;1.13;;;;;;;10.12;100.00;98225.75;5102393;28;20471;-50
2023/03/09 06:52:27;;;;;;;0.60;0.50;;;;;;;10.25;100.00;98236.50;5099072;28;20447;-50
2023/03/09 06:54:54;;;;;;;1.03;0.70;;;;;;;10.37;100.00;98241.09;5102451;28;20445;-50
2023/03/09 06:57:40;;;;;;;0.50;0.40;;;;;;;10.36;100.00;98242.03;5106442;28;20453;-50
2023/03/09 07:00:09;;;;;;;1.57;1.20;;;;;;;10.24;100.00;98240.97;5106097;28;20468;-50
2023/03/09 07:02:36;;;;;;;0.60;0.50;;;;;;;10.32;100.00;98244.03;5091900;28;20460;-50
2023/03/09 07:05:05;;;;;;;0.80;0.80;;;;;;;10.43;100.00;98250.50;5098923;28;20573;-50
2023/03/09 07:07:31;;;;;;;0.50;0.40;;;;;;;10.47;100.00;98250.19;5105414;28;20819;-50
2023/03/09 07:09:58;;;;;;;0.40;0.40;;;;;;;10.59;100.00;98262.75;5105773;28;20468;-50
2023/03/09 07:12:24;;;;;;;1.30;0.87;;;;;;;10.40;100.00;98267.44;5099545;28;20812;-50
2023/03/09 07:14:50;;;;;;;0.50;0.37;;;;;;;10.59;100.00;98272.50;5091616;28;20518;-50
2023/03/09 07:17:17;;;;;;;14.67;1.47;;;;;;;10.54;100.00;98277.22;5105467;28;20882;-50
2023/03/09 07:19:44;;;;;;;0.50;0.50;;;;;;;10.49;100.00;98285.50;5105817;28;20470;-50
2023/03/09 07:22:11;;;;;;;3.07;1.47;;;;;;;10.70;100.00;98285.16;5099526;28;20444;-50
2023/03/09 07:24:38;;;;;;;0.70;0.70;;;;;;;10.68;100.00;98282.56;5098612;28;20488;-50
2023/03/09 07:27:05;;;;;;;5.03;1.30;;;;;;;10.80;100.00;98284.47;5105074;28;20448;-50
2023/03/09 07:29:32;;;;;;;3.60;0.67;;;;;;;10.78;100.00;98294.34;5105981;28;20444;-50
2023/03/09 07:32:02;;;;;;;0.57;0.47;;;;;;;10.78;100.00;98298.81;5100347;28;20467;-51
2023/03/09 07:34:29;;;;;;;2.50;0.57;;;;;;;10.78;100.00;98301.47;5098633;28;20441;-51
2023/03/09 07:36:55;;;;;;;0.60;0.50;;;;;;;10.84;100.00;98309.94;5104045;28;20876;-51
2023/03/09 07:39:22;;;;;;;2.20;0.40;;;;;;;10.74;100.00;98308.78;5105595;28;20464;-51
2023/03/09 07:41:48;;;;;;;0.30;0.20;;;;;;;10.96;100.00;98308.28;5100905;28;20440;-51
2023/03/09 07:44:14;;;;;;;1.20;0.87;;;;;;;11.03;100.00;98316.75;5098805;28;20484;-51
2023/03/09 07:46:41;;;;;;;2.37;0.50;;;;;;;10.96;100.00;98314.50;5104114;28;20456;-51
2023/03/09 07:49:08;;;;;;;0.80;0.30;;;;;;;11.00;100.00;98319.59;5106249;28;20527;-51
2023/03/09 07:51:35;;;;;;;0.50;0.20;;;;;;;11.05;100.00;98320.16;5100925;28;20490;-51
2023/03/09 07:54:05;;;;;;;0.40;0.30;;;;;;;11.08;100.00;98317.31;5097322;28;20444;-51
2023/03/09 07:56:31;;;;;;;0.60;0.37;;;;;;;11.03;100.00;98325.56;5101672;28;20447;-51
2023/03/09 07:58:58;;;;;;;0.40;0.30;;;;;;;11.02;100.00;98328.34;5098963;28;20452;-51
2023/03/09 08:01:25;;;;;;;1.13;0.50;;;;;;;10.97;100.00;98332.16;5097904;28;20539;-51
2023/03/09 08:03:51;;;;;;;0.30;0.20;;;;;;;11.22;100.00;98327.94;5094797;28;20475;-51
2023/03/09 08:06:19;;;;;;;0.50;0.50;;;;;;;11.24;100.00;98323.41;5105212;28;20544;-51
2023/03/09 08:08:46;;;;;;;0.40;0.30;;;;;;;11.31;100.00;98327.38;5109626;28;20911;-51
2023/03/09 08:11:13;;;;;;;0.63;0.60;;;;;;;11.28;100.00;98338.22;5107305;28;20481;-51
2023/03/09 08:13:40;;;;;;;0.40;0.30;;;;;;;11.33;100.00;98341.41;5102346;28;20937;-51
2023/03/09 08:16:08;;;;;;;0.40;0.30;;;;;;;11.28;100.00;98352.34;5104298;28;20493;-51
2023/03/09 08:18:34;;;;;;;0.40;0.30;;;;;;;11.23;100.00;98358.91;5109220;28;20445;-51
2023/03/09 08:21:11;;;;;;;0.30;0.20;;;;;;;11.32;100.00;98352.16;5107703;28;20472;-51
2023/03/09 08:23:39;;;;;;;0.40;0.30;;;;;;;11.31;100.00;98351.31;5102248;28;20501;-51
2023/03/09 08:26:08;;;;;;;1.23;0.77;;;;;;;11.45;100.00;98369.91;5102225;28;20472;-51
2023/03/09 08:28:34;;;;;;;2.30;0.87;;;;;;;11.38;100.00;98357.97;5108304;28;20972;-51
2023/03/09 08:31:01;;;;;;;0.40;0.30;;;;;;;11.56;100.00;98367.44;5108705;28;20502;-51
2023/03/09 08:33:27;;;;;;;3.50;0.40;;;;;;;11.57;100.00;98363.81;5102465;28;20448;-51
2023/03/09 08:35:54;;;;;;;0.40;0.30;;;;;;;11.55;100.00;98371.03;5101910;28;20449;-51
2023/03/09 08:38:20;;;;;;;0.50;0.40;;;;;;;11.78;100.00;98379.34;5108567;28;20472;-50
2023/03/09 08:40:47;;;;;;;0.40;0.40;;;;;;;11.70;100.00;98387.00;5108729;28;20468;-51
2023/03/09 08:43:14;;;;;;;0.40;0.20;;;;;;;11.78;100.00;98390.00;5094224;28;20450;-51
2023/03/09 08:45:40;;;;;;;0.40;0.30;;;;;;;11.93;100.00;98397.06;5090228;28;21016;-51
2023/03/09 08:48:07;;;;;;;0.87;0.27;;;;;;;11.96;100.00;98393.34;5107368;28;21012;-51
2023/03/09 08:50:33;;;;;;;0.57;0.30;;;;;;;12.01;100.00;98388.56;5108597;28;20479;-51
2023/03/09 08:53:00;;;;;;;0.73;0.33;;;;;;;12.10;100.00;98399.47;5103385;28;20461;-50
2023/03/09 08:55:27;;;;;;;0.70;0.30;;;;;;;12.30;100.00;98403.47;5101200;28;20452;-51
2023/03/09 08:57:55;;;;;;;1.63;0.90;;;;;;;12.38;100.00;98408.31;5106710;28;20451;-51
2023/03/09 09:00:22;;;;;;;0.30;0.20;;;;;;;12.35;100.00;98400.53;5108001;28;20613;-50
2023/03/09 09:02:49;;;;;;;0.30;0.20;;;;;;;12.34;100.00;98409.47;5088390;28;20548;-50
2023/03/09 09:05:16;;;;;;;1.03;0.40;;;;;;;12.32;100.00;98409.56;5108342;28;21000;-50
2023/03/09 09:07:42;;;;;;;0.50;0.30;;;;;;;12.37;100.00;98411.94;5103967;28;20444;-50
2023/03/09 09:10:11;;;;;;;0.40;0.40;;;;;;;12.42;100.00;98418.66;5101379;28;20472;-50
2023/03/09 09:12:52;;;;;;;1.20;0.73;;;;;;;12.43;99.91;98412.38;5102962;28;20528;-51
2023/03/09 09:15:18;;;;;;;0.90;0.63;;;;;;;12.36;100.00;98418.22;5107716;28;20445;-50
2023/03/09 09:17:45;;;;;;;0.97;0.77;;;;;;;12.43;100.00;98422.19;5106200;28;20470;-50
2023/03/09 09:20:11;;;;;;;0.50;0.33;;;;;;;12.48;100.00;98430.75;5100915;28;20547;-50
2023/03/09 09:22:40;;;;;;;1.23;0.60;;;;;;;12.67;99.41;98433.88;5102483;28;20746;-50
2023/03/09 09:25:08;;;;;;;25.57;2.40;;;;;;;12.62;99.60;98437.81;5107765;28;20560;-50
2023/03/09 09:27:35;;;;;;;1.83;0.67;;;;;;;12.75;99.35;98434.22;5106869;28;20448;-50
2023/03/09 09:30:04;;;;;;;1.23;0.40;;;;;;;12.70;98.09;98440.81;5100571;28;20491;-50
2023/03/09 09:32:30;;;;;;;1.90;0.80;;;;;;;12.75;99.03;98433.38;5101441;28;20536;-50
2023/03/09 09:34:58;;;;;;;3.90;0.70;;;;;;;12.96;98.20;98442.56;5107755;28;20451;-50
2023/03/09 09:37:25;;;;;;;1.23;0.60;;;;;;;12.93;97.92;98445.47;5107763;28;20458;-50
2023/03/09 09:39:51;;;;;;;2.40;0.80;;;;;;;13.09;98.22;98447.94;5107419;28;20485;-51
2023/03/09 09:42:25;;;;;;;0.40;0.33;;;;;;;13.17;98.14;98458.09;5107304;28;20452;-50
2023/03/09 09:44:54;;;;;;;13.90;0.83;;;;;;;13.02;97.48;98466.19;5102091;28;20869;-50
2023/03/09 09:47:24;;;;;;;4.57;1.60;;;;;;;13.16;97.51;98465.25;5100590;28;20449;-50
2023/03/09 09:49:53;;;;;;;7.83;0.60;;;;;;;13.09;97.44;98469.28;5104746;28;20461;-51
2023/03/09 09:52:35;;;;;;;1.17;1.07;;;;;;;13.09;97.07;98463.09;5107416;28;20449;-50
2023/03/09 09:55:16;;;;;;;3.70;1.77;;;;;;;13.28;97.80;98460.88;5094099;28;20441;-50
2023/03/09 09:57:51;;;;;;;1.13;0.67;;;;;;;13.24;96.51;98470.06;5100791;28;20530;-50
2023/03/09 10:00:29;;;;;;;1.67;1.60;;;;;;;13.31;95.73;98464.22;5100074;28;20472;-51
2023/03/09 10:03:08;;;;;;;4.80;0.70;;;;;;;13.41;95.68;98471.56;5107136;28;20455;-51
2023/03/09 10:05:46;;;;;;;8.30;1.13;;;;;;;13.52;94.36;98469.88;5100180;27;20465;-51
2023/03/09 10:08:22;;;;;;;3.50;0.60;;;;;;;13.61;94.27;98471.03;5100509;28;20820;-50
2023/03/09 10:10:50;;;;;;;4.73;0.97;;;;;;;13.53;94.40;98473.38;5101198;28;20468;-50
2023/03/09 10:13:27;;;;;;;6.00;0.73;;;;;;;13.79;94.03;98474.22;5099802;28;20445;-51
2023/03/09 10:15:57;;;;;;;0.80;0.60;;;;;;;13.70;93.85;98486.41;5104430;28;20447;-51
2023/03/09 10:18:39;;;;;;;6.63;1.00;;;;;;;13.60;93.63;98488.88;5106926;28;20444;-50
2023/03/09 10:21:31;;;;;;;11.03;0.43;;;;;;;13.85;93.53;98496.03;5106186;28;20464;-51
2023/03/09 10:24:10;;;;;;;2.77;0.57;;;;;;;13.81;93.80;98499.84;5093838;28;20511;-51
2023/03/09 10:26:45;;;;;;;0.40;0.30;;;;;;;13.59;93.81;98495.19;5106382;28;20449;-50
2023/03/09 10:29:25;;;;;;;3.70;0.63;;;;;;;13.65;93.98;98512.56;5105452;28;20439;-51
2023/03/09 10:31:58;;;;;;;8.53;1.17;;;;;;;13.71;94.42;98520.19;5087126;28;21061;-51
2023/03/09 10:34:25;;;;;;;3.90;0.80;;;;;;;13.49;94.38;98530.63;5099329;28;20433;-51
2023/03/09 10:37:01;;;;;;;0.80;0.40;;;;;;;13.59;94.12;98529.03;5105241;28;20449;-50
2023/03/09 10:39:45;;;;;;;1.17;1.17;;;;;;;13.71;94.42;98535.34;5106322;28;20535;-51
2023/03/09 10:42:22;;;;;;;1.90;0.83;;;;;;;13.50;94.77;98537.66;5105167;28;20448;-51
2023/03/09 10:45:16;;;;;;;3.57;1.03;;;;;;;13.42;95.43;98548.00;5097041;28;20491;-51
2023/03/09 10:48:08;;;;;;;3.53;3.27;;;;;;;13.45;94.76;98547.81;5099195;28;20992;-51
2023/03/09 10:50:53;;;;;;;2.40;0.67;;;;;;;13.58;94.36;98559.38;5099689;28;20495;-51
2023/03/09 10:53:35;;;;;;;1.13;1.03;;;;;;;13.43;94.15;98565.72;5102621;28;20444;-51
2023/03/09 10:56:27;;;;;;;1.33;0.47;;;;;;;13.51;94.78;98571.41;5099357;28;20437;-51
2023/03/09 10:59:08;;;;;;;0.70;0.60;;;;;;;13.67;95.86;98577.41;5099102;28;20455;-51
2023/03/09 11:01:36;;;;;;;0.93;0.40;;;;;;;13.92;95.39;98572.06;5095619;28;20478;-51
2023/03/09 11:04:26;;;;;;;0.77;0.43;;;;;;;13.87;95.15;98578.72;5105404;28;20445;-51
2023/03/09 11:06:54;;;;;;;0.40;0.30;;;;;;;14.08;95.08;98584.34;5106083;28;20902;-51
2023/03/09 11:09:35;;;;;;;0.30;0.30;;;;;;;14.08;93.94;98584.34;5102028;28;20481;-51
2023/03/09 11:12:07;;;;;;;2.77;0.67;;;;;;;14.01;94.07;98575.94;5099432;28;20440;-51
2023/03/09 11:14:41;;;;;;;0.50;0.50;;;;;;;14.26;93.58;98595.59;5094576;28;20938;-51
2023/03/09 11:17:39;;;;;;;0.40;0.30;;;;;;;14.15;93.26;98577.63;5086159;28;20448;-51
2023/03/09 11:20:12;;;;;;;0.50;0.50;;;;;;;14.20;92.99;98579.00;5098883;28;20467;-51
2023/03/09 11:22:52;;;;;;;3.90;0.50;;;;;;;14.21;91.74;98575.38;5100308;28;20449;-52
2023/03/09 11:25:57;;;;;;;3.90;0.70;;;;;;;14.06;92.01;98586.28;5087931;28;20490;-51
2023/03/09 11:28:27;;;;;;;3.70;0.90;;;;;;;14.35;92.65;98587.75;5098848;28;20923;-51
2023/03/09 11:30:56;;;;;;;3.10;0.60;;;;;;;14.16;91.19;98584.69;5099057;28;20475;-51
2023/03/09 11:33:25;;;;;;;0.60;0.53;;;;;;;13.97;91.54;98589.59;5099648;28;20444;-51
2023/03/09 11:35:54;;;;;;;0.43;0.30;;;;;;;14.18;91.90;98582.75;5098782;28;20452;-52
2023/03/09 11:38:22;;;;;;;1.50;0.70;;;;;;;14.10;91.67;98593.97;5106953;28;20897;-51